createdAt,value
2022-11-19T00:00:46.508Z,-4.30
2022-11-19T00:03:17.298Z,-4.40
2022-11-19T00:05:48.966Z,-4.50
2022-11-19T00:08:22.982Z,-4.60
2022-11-19T00:10:53.278Z,-4.70
2022-11-19T00:13:22.791Z,-4.80
2022-11-19T00:15:54.353Z,-4.80
2022-11-19T00:18:24.604Z,-4.80
2022-11-19T00:20:57.273Z,-4.90
2022-11-19T00:23:29.808Z,-4.90
2022-11-19T00:26:08.391Z,-4.90
2022-11-19T00:28:40.323Z,-5.00
2022-11-19T00:31:13.404Z,-5.00
2022-11-19T00:33:45.178Z,-4.90
2022-11-19T00:36:30.873Z,-4.90
2022-11-19T00:39:26.002Z,-4.90
2022-11-19T00:41:58.960Z,-4.80
2022-11-19T00:44:36.807Z,-4.80
2022-11-19T00:47:08.027Z,-4.70
2022-11-19T00:49:38.854Z,-4.70
2022-11-19T00:52:09.211Z,-4.70
2022-11-19T00:54:41.286Z,-4.60
2022-11-19T00:57:11.650Z,-4.50
2022-11-19T00:59:42.136Z,-4.40
2022-11-19T01:02:12.917Z,-4.30
2022-11-19T01:04:43.130Z,-4.20
2022-11-19T01:07:13.419Z,-4.10
2022-11-19T01:09:45.454Z,-4.10
2022-11-19T01:12:16.597Z,-4.00
2022-11-19T01:14:50.393Z,-3.90
2022-11-19T01:17:20.678Z,-3.90
2022-11-19T01:19:51.869Z,-3.90
2022-11-19T01:22:22.076Z,-3.80
2022-11-19T01:24:53.941Z,-3.80
2022-11-19T01:27:24.153Z,-3.80
2022-11-19T01:29:55.641Z,-3.80
2022-11-19T01:32:26.492Z,-3.80
2022-11-19T01:34:56.943Z,-3.70
2022-11-19T01:37:28.607Z,-3.70
2022-11-19T01:40:00.907Z,-3.70
2022-11-19T01:43:02.204Z,-3.70
2022-11-19T01:45:36.473Z,-3.60
2022-11-19T01:48:12.682Z,-3.60
2022-11-19T01:50:51.529Z,-3.60
2022-11-19T01:53:23.924Z,-3.70
2022-11-19T01:55:58.542Z,-3.70
2022-11-19T01:58:30.613Z,-3.90
2022-11-19T02:01:01.396Z,-4.00
2022-11-19T02:03:35.179Z,-4.20
2022-11-19T02:06:06.678Z,-4.40
2022-11-19T02:08:44.771Z,-4.60
2022-11-19T02:11:41.207Z,-4.90
2022-11-19T02:14:23.858Z,-5.00
2022-11-19T02:17:00.737Z,-5.20
2022-11-19T02:20:05.160Z,-5.20
2022-11-19T02:23:04.830Z,-5.30
2022-11-19T02:25:47.460Z,-5.30
2022-11-19T02:28:38.686Z,-5.30
2022-11-19T02:31:17.040Z,-5.30
2022-11-19T02:33:57.863Z,-5.30
2022-11-19T02:36:31.761Z,-5.20
2022-11-19T02:39:08.953Z,-5.10
2022-11-19T02:41:44.904Z,-5.10
2022-11-19T02:44:39.201Z,-5.00
2022-11-19T02:47:16.192Z,-4.80
2022-11-19T02:49:48.530Z,-4.70
2022-11-19T02:52:20.290Z,-4.60
2022-11-19T02:54:50.625Z,-4.40
2022-11-19T02:57:22.955Z,-4.30
2022-11-19T03:00:16.364Z,-4.20
2022-11-19T03:03:07.992Z,-4.10
2022-11-19T03:05:41.616Z,-4.00
2022-11-19T03:08:11.919Z,-3.90
2022-11-19T03:10:53.269Z,-3.80
2022-11-19T03:13:44.381Z,-3.80
2022-11-19T03:16:41.154Z,-3.70
2022-11-19T03:19:28.449Z,-3.70
2022-11-19T03:22:02.991Z,-3.60
2022-11-19T03:24:37.667Z,-3.60
2022-11-19T03:27:13.933Z,-3.50
2022-11-19T03:29:47.702Z,-3.50
2022-11-19T03:32:24.191Z,-3.50
2022-11-19T03:35:04.357Z,-3.40
2022-11-19T03:37:38.399Z,-3.40
2022-11-19T03:40:11.571Z,-3.40
2022-11-19T03:42:44.579Z,-3.40
2022-11-19T03:45:18.722Z,-3.40
2022-11-19T03:47:53.308Z,-3.40
2022-11-19T03:50:31.565Z,-3.40
2022-11-19T03:53:04.488Z,-3.40
2022-11-19T03:55:40.392Z,-3.40
2022-11-19T03:58:13.369Z,-3.40
2022-11-19T04:00:43.555Z,-3.40
2022-11-19T04:03:13.736Z,-3.30
2022-11-19T04:05:45.811Z,-3.40
2022-11-19T04:08:16.034Z,-3.40
2022-11-19T04:10:46.303Z,-3.40
2022-11-19T04:13:16.485Z,-3.50
2022-11-19T04:15:46.709Z,-3.60
2022-11-19T04:18:17.446Z,-3.70
2022-11-19T04:20:49.310Z,-4.00
2022-11-19T04:23:19.522Z,-4.20
2022-11-19T04:25:49.857Z,-4.40
2022-11-19T04:28:20.115Z,-4.50
2022-11-19T04:30:51.004Z,-4.60
2022-11-19T04:33:21.161Z,-4.70
2022-11-19T04:35:53.158Z,-4.70
2022-11-19T04:38:23.650Z,-4.70
2022-11-19T04:40:54.120Z,-4.70
2022-11-19T04:43:24.262Z,-4.70
2022-11-19T04:45:54.538Z,-4.60
2022-11-19T04:48:24.702Z,-4.60
2022-11-19T04:50:56.600Z,-4.50
2022-11-19T04:53:26.800Z,-4.40
2022-11-19T04:55:57.084Z,-4.20
2022-11-19T04:58:27.316Z,-4.10
2022-11-19T05:00:57.560Z,-4.10
2022-11-19T05:03:28.530Z,-4.00
2022-11-19T05:06:01.309Z,-3.90
2022-11-19T05:08:31.942Z,-3.80
2022-11-19T05:11:02.133Z,-3.80
2022-11-19T05:13:32.251Z,-3.80
2022-11-19T05:16:02.645Z,-3.80
2022-11-19T05:18:32.768Z,-3.80
2022-11-19T05:21:05.322Z,-3.80
2022-11-19T05:23:36.237Z,-3.70
2022-11-19T05:26:06.918Z,-3.70
2022-11-19T05:28:39.626Z,-3.70
2022-11-19T05:31:11.427Z,-3.70
2022-11-19T05:33:41.754Z,-3.70
2022-11-19T05:36:14.312Z,-3.70
2022-11-19T05:38:44.516Z,-3.70
2022-11-19T05:41:14.776Z,-3.70
2022-11-19T05:43:44.979Z,-3.60
2022-11-19T05:46:15.355Z,-3.60
2022-11-19T05:48:45.532Z,-3.60
2022-11-19T05:51:18.328Z,-3.50
2022-11-19T05:53:48.581Z,-3.50
2022-11-19T05:56:18.878Z,-3.50
2022-11-19T05:58:50.050Z,-3.50
2022-11-19T06:01:28.288Z,-3.50
2022-11-19T06:03:59.096Z,-3.50
2022-11-19T06:06:31.077Z,-3.50
2022-11-19T06:09:01.368Z,-3.50
2022-11-19T06:11:50.857Z,-3.50
2022-11-19T06:14:22.715Z,-3.50
2022-11-19T06:16:53.719Z,-3.50
2022-11-19T06:19:24.356Z,-3.40
2022-11-19T06:21:56.340Z,-3.40
2022-11-19T06:24:26.502Z,-3.40
2022-11-19T06:26:56.728Z,-3.30
2022-11-19T06:29:26.960Z,-3.30
2022-11-19T06:31:57.417Z,-3.30
2022-11-19T06:34:27.591Z,-3.20
2022-11-19T06:36:59.713Z,-3.30
2022-11-19T06:39:29.906Z,-3.30
2022-11-19T06:42:21.760Z,-3.30
2022-11-19T06:44:51.916Z,-3.50
2022-11-19T06:47:22.138Z,-3.60
2022-11-19T06:49:52.380Z,-3.80
2022-11-19T06:52:24.414Z,-4.00
2022-11-19T06:54:54.563Z,-4.20
2022-11-19T06:57:24.958Z,-4.30
2022-11-19T06:59:55.084Z,-4.40
2022-11-19T07:02:25.361Z,-4.60
2022-11-19T07:04:55.802Z,-4.70
2022-11-19T07:07:28.257Z,-4.80
2022-11-19T07:09:58.418Z,-5.00
2022-11-19T07:12:29.195Z,-5.10
2022-11-19T07:15:03.978Z,-5.30
2022-11-19T07:17:37.191Z,-5.50
2022-11-19T07:20:08.529Z,-5.60
2022-11-19T07:22:40.494Z,-5.90
2022-11-19T07:25:13.207Z,-6.00
2022-11-19T07:27:43.701Z,-6.20
2022-11-19T07:30:14.903Z,-6.40
2022-11-19T07:32:46.354Z,-6.40
2022-11-19T07:35:16.532Z,-6.50
2022-11-19T07:37:48.311Z,-6.60
2022-11-19T07:40:19.151Z,-6.60
2022-11-19T07:42:50.976Z,-6.70
2022-11-19T07:45:24.382Z,-6.70
2022-11-19T07:47:54.563Z,-6.90
2022-11-19T07:50:25.300Z,-6.90
2022-11-19T07:53:00.154Z,-7.00
2022-11-19T07:55:30.306Z,-6.90
2022-11-19T07:58:00.580Z,-6.90
2022-11-19T08:00:30.741Z,-6.90
2022-11-19T08:03:01.001Z,-6.70
2022-11-19T08:05:31.132Z,-6.50
2022-11-19T08:08:02.948Z,-6.40
2022-11-19T08:10:33.381Z,-6.30
2022-11-19T08:13:06.480Z,-6.20
2022-11-19T08:15:37.155Z,-6.10
2022-11-19T08:18:16.310Z,-5.90
2022-11-19T08:20:49.401Z,-5.80
2022-11-19T08:23:21.247Z,-5.70
2022-11-19T08:25:51.378Z,-5.70
2022-11-19T08:28:21.907Z,-5.70
2022-11-19T08:30:52.545Z,-5.70
2022-11-19T08:33:22.905Z,-5.70
2022-11-19T08:35:58.596Z,-5.60
2022-11-19T08:38:34.539Z,-5.60
2022-11-19T08:41:24.453Z,-5.60
2022-11-19T08:43:54.698Z,-5.60
2022-11-19T08:46:24.873Z,-5.60
2022-11-19T08:48:55.055Z,-5.60
2022-11-19T08:51:25.276Z,-5.60
2022-11-19T08:53:57.181Z,-5.60
2022-11-19T08:56:27.490Z,-5.60
2022-11-19T08:59:02.465Z,-5.60
2022-11-19T09:01:33.573Z,-5.70
2022-11-19T09:04:03.821Z,-5.80
2022-11-19T09:06:35.912Z,-5.80
2022-11-19T09:09:07.941Z,-6.00
2022-11-19T09:11:42.392Z,-6.00
2022-11-19T09:14:13.159Z,-6.10
2022-11-19T09:16:43.225Z,-6.20
2022-11-19T09:19:13.394Z,-6.30
2022-11-19T09:21:43.517Z,-6.40
2022-11-19T09:24:15.259Z,-6.40
2022-11-19T09:26:50.231Z,-6.30
2022-11-19T09:29:22.948Z,-6.00
2022-11-19T09:31:53.567Z,-5.70
2022-11-19T09:34:23.781Z,-5.50
2022-11-19T09:36:55.779Z,-5.30
2022-11-19T09:39:27.493Z,-5.20
2022-11-19T09:42:05.080Z,-4.90
2022-11-19T09:44:58.128Z,-4.70
2022-11-19T09:47:38.337Z,-4.50
2022-11-19T09:50:16.201Z,-4.30
2022-11-19T09:52:50.248Z,-4.20
2022-11-19T09:55:28.553Z,-4.10
2022-11-19T09:58:01.276Z,-3.90
2022-11-19T10:00:33.685Z,-3.90
2022-11-19T10:03:13.654Z,-3.80
2022-11-19T10:05:53.984Z,-3.80
2022-11-19T10:08:36.923Z,-3.80
2022-11-19T10:11:29.788Z,-3.90
2022-11-19T10:14:07.519Z,-3.90
2022-11-19T10:16:50.862Z,-3.90
2022-11-19T10:19:34.588Z,-4.00
2022-11-19T10:22:12.269Z,-4.10
2022-11-19T10:24:45.913Z,-4.20
2022-11-19T10:27:25.904Z,-4.30
2022-11-19T10:30:00.665Z,-4.20
2022-11-19T10:32:34.335Z,-4.20
2022-11-19T10:35:10.716Z,-4.20
2022-11-19T10:37:44.341Z,-4.20
2022-11-19T10:40:19.537Z,-4.40
2022-11-19T10:42:55.441Z,-4.60
2022-11-19T10:45:28.236Z,-4.70
2022-11-19T10:48:08.844Z,-4.80
2022-11-19T10:50:40.237Z,-4.90
2022-11-19T10:53:18.315Z,-4.90
2022-11-19T10:55:54.710Z,-4.80
2022-11-19T10:58:29.751Z,-4.70
2022-11-19T11:01:02.040Z,-4.60
2022-11-19T11:03:40.435Z,-4.50
2022-11-19T11:06:11.869Z,-4.50
2022-11-19T11:08:51.597Z,-4.40
2022-11-19T11:11:51.047Z,-4.40
2022-11-19T11:14:42.058Z,-4.30
2022-11-19T11:17:21.776Z,-4.20
2022-11-19T11:20:03.083Z,-4.30
2022-11-19T11:22:34.058Z,-4.30
2022-11-19T11:25:07.462Z,-4.30
2022-11-19T11:27:38.715Z,-4.20
2022-11-19T11:30:19.355Z,-4.30
2022-11-19T11:32:49.779Z,-4.30
2022-11-19T11:35:33.876Z,-4.40
2022-11-19T11:38:05.464Z,-4.40
2022-11-19T11:40:35.624Z,-4.40
2022-11-19T11:43:06.025Z,-4.30
2022-11-19T11:45:39.736Z,-4.40
2022-11-19T11:48:11.355Z,-4.40
2022-11-19T11:50:41.620Z,-4.40
2022-11-19T11:53:12.726Z,-4.40
2022-11-19T11:55:42.889Z,-4.40
2022-11-19T11:58:28.723Z,-4.40
2022-11-19T12:01:15.996Z,-4.40
2022-11-19T12:03:57.007Z,-4.50
2022-11-19T12:06:29.243Z,-4.60
2022-11-19T12:09:04.956Z,-4.60
2022-11-19T12:11:57.249Z,-4.60
2022-11-19T12:14:31.016Z,-4.70
2022-11-19T12:17:19.023Z,-4.80
2022-11-19T12:20:04.737Z,-4.90
2022-11-19T12:22:48.130Z,-5.00
2022-11-19T12:25:33.309Z,-5.00
2022-11-19T12:28:23.008Z,-4.80
2022-11-19T12:31:04.107Z,-4.50
2022-11-19T12:33:58.494Z,-4.40
2022-11-19T12:36:39.971Z,-4.40
2022-11-19T12:39:23.824Z,-4.40
2022-11-19T12:42:13.624Z,-4.40
2022-11-19T12:44:54.048Z,-4.50
2022-11-19T12:47:44.568Z,-4.60
2022-11-19T12:50:35.891Z,-4.50
2022-11-19T12:54:46.602Z,-4.60
2022-11-19T12:57:02.107Z,-4.50
2022-11-19T12:59:54.395Z,-4.40
2022-11-19T13:02:36.873Z,-4.20
2022-11-19T13:05:14.815Z,-4.10
2022-11-19T13:08:22.665Z,-3.80
2022-11-19T13:10:59.340Z,-3.60
2022-11-19T13:13:32.135Z,-3.40
2022-11-19T13:16:06.747Z,-3.20
2022-11-19T13:18:40.561Z,-3.10
2022-11-19T13:21:18.396Z,-2.90
2022-11-19T13:23:52.611Z,-2.80
2022-11-19T13:26:25.378Z,-2.70
2022-11-19T13:28:59.639Z,-2.60
2022-11-19T13:31:36.315Z,-2.40
2022-11-19T13:34:16.414Z,-2.30
2022-11-19T13:36:54.378Z,-2.10
2022-11-19T13:39:31.730Z,-2.00
2022-11-19T13:42:20.254Z,-1.80
2022-11-19T13:44:56.350Z,-1.80
2022-11-19T13:47:29.637Z,-1.80
2022-11-19T13:50:03.451Z,-1.80
2022-11-19T13:52:38.875Z,-1.80
2022-11-19T13:55:31.962Z,-1.70
2022-11-19T13:58:13.848Z,-1.60
2022-11-19T14:00:56.735Z,-1.50
2022-11-19T14:03:45.518Z,-1.40
2022-11-19T14:06:32.239Z,-1.30
2022-11-19T14:09:18.657Z,-1.20
2022-11-19T14:12:10.846Z,-1.20
2022-11-19T14:15:11.999Z,-1.00
2022-11-19T14:18:05.047Z,-0.90
2022-11-19T14:20:55.848Z,-0.80
2022-11-19T14:24:01.872Z,-0.70
2022-11-19T14:27:17.917Z,-0.70
2022-11-19T14:30:02.549Z,-0.60
2022-11-19T14:32:47.225Z,-0.50
2022-11-19T14:35:39.641Z,-0.40
2022-11-19T14:38:46.224Z,-0.30
2022-11-19T14:41:31.806Z,-0.10
2022-11-19T14:44:11.109Z,0.10
2022-11-19T14:46:44.207Z,0.20
2022-11-19T14:49:28.095Z,0.40
2022-11-19T14:52:43.985Z,0.40
2022-11-19T14:55:39.894Z,0.50
2022-11-19T15:02:56.546Z,0.30
2022-11-19T15:05:33.928Z,0.10
2022-11-19T15:08:31.712Z,0.00
2022-11-19T15:11:11.671Z,0.00
2022-11-19T15:14:38.722Z,-0.10
2022-11-19T15:17:12.643Z,0.20
2022-11-19T15:19:51.740Z,0.30
2022-11-19T15:22:46.722Z,0.70
2022-11-19T15:25:39.974Z,1.00
2022-11-19T15:28:24.141Z,1.20
2022-11-19T15:31:10.966Z,1.30
2022-11-19T15:33:59.328Z,1.50
2022-11-19T15:36:37.700Z,1.60
2022-11-19T15:39:16.444Z,1.80
2022-11-19T15:42:01.161Z,1.80
2022-11-19T15:44:41.481Z,1.70
2022-11-19T15:47:17.318Z,1.50
2022-11-19T15:49:48.403Z,1.50
2022-11-19T15:52:31.418Z,1.70
2022-11-19T15:55:15.637Z,1.80
2022-11-19T15:57:47.017Z,1.90
2022-11-19T16:08:39.238Z,2.20
2022-11-19T16:11:48.731Z,2.20
2022-11-19T16:14:48.853Z,2.40
2022-11-19T16:17:44.119Z,2.40
2022-11-19T16:20:26.412Z,2.30
2022-11-19T16:23:02.809Z,2.40
2022-11-19T16:25:38.799Z,2.40
2022-11-19T16:28:24.574Z,2.40
2022-11-19T16:34:42.717Z,2.50
2022-11-19T16:47:45.675Z,2.50
2022-11-19T16:50:32.285Z,2.30
2022-11-19T16:53:03.800Z,2.20
2022-11-19T16:56:12.916Z,2.00
2022-11-19T16:58:48.714Z,1.70
2022-11-19T17:01:28.004Z,1.60
2022-11-19T17:04:05.238Z,1.50
2022-11-19T17:06:39.978Z,1.60
2022-11-19T17:09:17.952Z,1.60
2022-11-19T17:12:10.893Z,1.50
2022-11-19T17:15:04.375Z,1.50
2022-11-19T17:17:43.839Z,1.50
2022-11-19T17:21:02.023Z,1.50
2022-11-19T17:23:53.669Z,1.60
2022-11-19T17:26:27.431Z,1.60
2022-11-19T17:29:03.366Z,1.70
2022-11-19T17:31:33.688Z,1.70
2022-11-19T17:34:23.880Z,1.60
2022-11-19T17:36:54.492Z,1.60
2022-11-19T17:39:26.648Z,1.60
2022-11-19T17:42:18.055Z,1.40
2022-11-19T17:45:11.329Z,1.30
2022-11-19T17:47:41.687Z,1.20
2022-11-19T17:50:12.285Z,1.00
2022-11-19T17:52:42.751Z,0.80
2022-11-19T17:55:20.240Z,0.70
2022-11-19T17:57:50.450Z,0.70
2022-11-19T18:00:20.673Z,0.80
2022-11-19T18:02:51.369Z,0.70
2022-11-19T18:05:24.646Z,0.50
2022-11-19T18:07:55.545Z,0.50
2022-11-19T18:10:27.322Z,0.60
2022-11-19T18:12:57.561Z,0.90
2022-11-19T18:15:27.881Z,1.00
2022-11-19T18:17:58.221Z,1.10
2022-11-19T18:20:28.354Z,1.10
2022-11-19T18:22:58.546Z,1.20
2022-11-19T18:25:30.438Z,1.30
2022-11-19T18:28:00.824Z,1.40
2022-11-19T18:30:31.045Z,1.50
2022-11-19T18:33:01.314Z,1.30
2022-11-19T18:35:33.368Z,1.30
2022-11-19T18:38:41.210Z,1.30
2022-11-19T18:41:15.710Z,1.20
2022-11-19T18:44:02.647Z,1.10
2022-11-19T18:46:32.897Z,1.00
2022-11-19T18:49:03.422Z,0.90
2022-11-19T18:51:34.945Z,1.00
2022-11-19T18:54:05.308Z,1.00
2022-11-19T18:56:36.978Z,0.90
2022-11-19T18:59:07.336Z,0.80
2022-11-19T19:01:37.489Z,0.70
2022-11-19T19:04:07.880Z,0.70
2022-11-19T19:06:38.189Z,0.70
2022-11-19T19:09:08.861Z,0.60
2022-11-19T19:11:57.943Z,0.50
2022-11-19T19:14:28.142Z,0.50
2022-11-19T19:16:58.324Z,0.50
2022-11-19T19:19:28.573Z,0.40
2022-11-19T19:21:58.770Z,0.30
2022-11-19T19:24:28.915Z,0.40
2022-11-19T19:27:00.654Z,0.40
2022-11-19T19:29:31.436Z,0.40
2022-11-19T19:32:01.526Z,0.30
2022-11-19T19:34:33.193Z,0.30
2022-11-19T19:37:03.302Z,0.20
2022-11-19T19:39:34.242Z,0.20
2022-11-19T19:42:06.233Z,0.20
2022-11-19T19:44:36.668Z,0.10
2022-11-19T19:47:07.132Z,0.10
2022-11-19T19:49:39.236Z,0.00
2022-11-19T19:52:09.353Z,-0.10
2022-11-19T19:54:41.544Z,-0.20
2022-11-19T19:57:13.254Z,-0.30
2022-11-19T19:59:43.434Z,-0.40
2022-11-19T20:02:13.727Z,-0.40
2022-11-19T20:04:43.853Z,-0.40
2022-11-19T20:07:14.057Z,-0.40
2022-11-19T20:09:44.370Z,-0.40
2022-11-19T20:12:16.258Z,-0.40
2022-11-19T20:14:46.483Z,-0.40
2022-11-19T20:17:16.747Z,-0.50
2022-11-19T20:19:47.175Z,-0.50
2022-11-19T20:22:17.898Z,-0.60
2022-11-19T20:24:48.146Z,-0.60
2022-11-19T20:27:19.900Z,-0.60
2022-11-19T20:29:50.133Z,-0.60
2022-11-19T20:32:20.854Z,-0.60
2022-11-19T20:34:51.162Z,-0.70
2022-11-19T20:37:21.413Z,-0.90
2022-11-19T20:39:51.757Z,-1.00
2022-11-19T20:42:40.515Z,-1.00
2022-11-19T20:45:11.506Z,-1.00
2022-11-19T20:47:42.034Z,-1.00
2022-11-19T20:50:12.780Z,-0.80
2022-11-19T20:52:43.211Z,-0.70
2022-11-19T20:55:13.578Z,-0.60
2022-11-19T20:57:45.428Z,-0.60
2022-11-19T21:00:17.120Z,-0.60
2022-11-19T21:02:47.394Z,-0.60
2022-11-19T21:05:17.677Z,-0.80
2022-11-19T21:07:48.220Z,-0.90
2022-11-19T21:10:18.938Z,-1.00
2022-11-19T21:13:03.278Z,-1.20
2022-11-19T21:15:36.637Z,-1.30
2022-11-19T21:18:07.181Z,-1.40
2022-11-19T21:20:37.566Z,-1.50
2022-11-19T21:23:07.917Z,-1.60
2022-11-19T21:25:38.385Z,-1.70
2022-11-19T21:28:10.219Z,-1.70
2022-11-19T21:30:40.535Z,-1.70
2022-11-19T21:33:10.861Z,-1.70
2022-11-19T21:35:43.450Z,-1.70
2022-11-19T21:38:14.283Z,-1.70
2022-11-19T21:40:44.717Z,-1.80
2022-11-19T21:43:16.501Z,-1.80
2022-11-19T21:45:46.962Z,-1.90
2022-11-19T21:48:17.634Z,-1.90
2022-11-19T21:50:47.992Z,-1.90
2022-11-19T21:53:18.926Z,-1.80
2022-11-19T21:55:49.995Z,-1.80
2022-11-19T21:58:21.742Z,-1.70
2022-11-19T22:00:51.998Z,-1.70
2022-11-19T22:03:22.219Z,-1.70
2022-11-19T22:06:01.557Z,-1.70
2022-11-19T22:08:32.621Z,-1.70
2022-11-19T22:11:23.420Z,-1.60
2022-11-19T22:13:55.845Z,-1.70
2022-11-19T22:16:26.056Z,-1.70
2022-11-19T22:18:56.242Z,-1.70
2022-11-19T22:21:26.631Z,-1.80
2022-11-19T22:23:56.815Z,-1.80
2022-11-19T22:26:31.661Z,-1.80
2022-11-19T22:29:03.489Z,-1.80
2022-11-19T22:31:34.735Z,-1.90
2022-11-19T22:34:04.968Z,-1.90
2022-11-19T22:36:37.064Z,-1.90
2022-11-19T22:39:07.362Z,-2.00
2022-11-19T22:41:58.530Z,-2.00
2022-11-19T22:44:30.470Z,-2.10
2022-11-19T22:47:02.889Z,-2.20
2022-11-19T22:49:33.684Z,-2.30
2022-11-19T22:52:03.988Z,-2.20
2022-11-19T22:54:37.350Z,-2.20
2022-11-19T22:57:11.794Z,-2.10
2022-11-19T22:59:43.527Z,-2.00
2022-11-19T23:02:13.728Z,-2.00
2022-11-19T23:04:43.940Z,-2.00
2022-11-19T23:07:14.165Z,-2.00
2022-11-19T23:09:44.396Z,-2.00
2022-11-19T23:12:31.595Z,-2.00
2022-11-19T23:15:03.403Z,-1.90
2022-11-19T23:17:33.681Z,-1.90
2022-11-19T23:20:05.037Z,-1.90
2022-11-19T23:22:35.929Z,-1.90
2022-11-19T23:25:06.363Z,-1.90
2022-11-19T23:27:36.558Z,-1.90
2022-11-19T23:30:09.536Z,-1.90
2022-11-19T23:32:39.819Z,-1.90
2022-11-19T23:35:10.695Z,-1.90
2022-11-19T23:37:40.982Z,-1.90
2022-11-19T23:40:20.670Z,-1.80
2022-11-19T23:42:52.236Z,-1.80
2022-11-19T23:45:24.322Z,-1.80
2022-11-19T23:47:55.328Z,-1.80
2022-11-19T23:50:25.564Z,-1.80
2022-11-19T23:52:56.076Z,-1.80
2022-11-19T23:55:26.266Z,-1.80
2022-11-19T23:57:56.470Z,-1.80
